createdAt,value
2022-08-03T00:00:43.913Z,17.84
2022-08-03T00:01:43.903Z,17.82
2022-08-03T00:02:43.934Z,17.81
2022-08-03T00:03:43.890Z,17.81
2022-08-03T00:04:44.155Z,17.81
2022-08-03T00:06:03.948Z,17.78
2022-08-03T00:06:44.864Z,17.74
2022-08-03T00:07:43.812Z,17.71
2022-08-03T00:08:43.809Z,17.70
2022-08-03T00:09:44.184Z,17.68
2022-08-03T00:10:43.762Z,17.66
2022-08-03T00:11:43.753Z,17.66
2022-08-03T00:12:43.767Z,17.66
2022-08-03T00:13:43.754Z,17.64
2022-08-03T00:14:44.223Z,17.64
2022-08-03T00:15:44.082Z,17.62
2022-08-03T00:16:43.688Z,17.56
2022-08-03T00:17:53.029Z,17.54
2022-08-03T00:18:44.689Z,17.52
2022-08-03T00:19:43.908Z,17.49
2022-08-03T00:20:43.640Z,17.46
2022-08-03T00:21:43.972Z,17.43
2022-08-03T00:22:43.670Z,17.41
2022-08-03T00:23:51.455Z,17.41
2022-08-03T00:24:45.148Z,17.37
2022-08-03T00:25:43.583Z,17.36
2022-08-03T00:26:44.001Z,17.37
2022-08-03T00:27:43.583Z,17.37
2022-08-03T00:28:43.606Z,17.38
2022-08-03T00:29:59.391Z,17.38
2022-08-03T00:30:44.528Z,17.40
2022-08-03T00:31:52.393Z,17.41
2022-08-03T00:32:45.320Z,17.43
2022-08-03T00:33:59.469Z,17.43
2022-08-03T00:34:58.590Z,17.41
2022-08-03T00:35:50.373Z,17.41
2022-08-03T00:36:44.765Z,17.38
2022-08-03T00:37:43.389Z,17.38
2022-08-03T00:38:43.454Z,17.36
2022-08-03T00:39:43.417Z,17.36
2022-08-03T00:40:43.378Z,17.34
2022-08-03T00:41:43.448Z,17.34
2022-08-03T00:42:43.776Z,17.31
2022-08-03T00:43:43.386Z,17.31
2022-08-03T00:44:43.367Z,17.28
2022-08-03T00:45:43.287Z,17.28
2022-08-03T00:46:43.286Z,17.28
2022-08-03T00:47:43.695Z,17.30
2022-08-03T00:48:45.027Z,17.31
2022-08-03T00:49:43.256Z,17.30
2022-08-03T00:50:43.224Z,17.30
2022-08-03T00:51:43.234Z,17.30
2022-08-03T00:52:43.224Z,17.28
2022-08-03T00:53:43.965Z,17.30
2022-08-03T00:54:44.287Z,17.26
2022-08-03T00:55:43.166Z,17.26
2022-08-03T00:57:00.213Z,17.22
2022-08-03T00:57:44.125Z,17.21
2022-08-03T00:58:43.475Z,17.21
2022-08-03T00:59:43.106Z,17.18
2022-08-03T01:00:43.111Z,17.16
2022-08-03T01:01:43.151Z,17.18
2022-08-03T01:02:43.071Z,17.14
2022-08-03T01:03:43.474Z,17.14
2022-08-03T01:04:43.141Z,17.07
2022-08-03T01:05:43.054Z,17.06
2022-08-03T01:06:43.022Z,17.04
2022-08-03T01:07:43.264Z,17.04
2022-08-03T01:08:43.203Z,17.04
2022-08-03T01:09:43.015Z,17.03
2022-08-03T01:10:43.069Z,17.00
2022-08-03T01:12:00.742Z,16.97
2022-08-03T01:12:44.365Z,16.96
2022-08-03T01:14:03.435Z,16.94
2022-08-03T01:14:43.911Z,16.93
2022-08-03T01:15:42.921Z,16.94
2022-08-03T01:16:42.893Z,16.94
2022-08-03T01:17:43.092Z,16.91
2022-08-03T01:18:42.894Z,16.89
2022-08-03T01:19:42.874Z,16.86
2022-08-03T01:20:42.848Z,16.85
2022-08-03T01:21:42.832Z,16.83
2022-08-03T01:22:43.002Z,16.82
2022-08-03T01:23:42.782Z,16.82
2022-08-03T01:24:42.789Z,16.82
2022-08-03T01:25:42.770Z,16.81
2022-08-03T01:26:42.778Z,16.85
2022-08-03T01:27:42.979Z,16.86
2022-08-03T01:28:42.751Z,16.88
2022-08-03T01:29:49.891Z,16.86
2022-08-03T01:32:58.463Z,16.85
2022-08-03T01:33:06.822Z,16.82
2022-08-03T01:33:58.817Z,16.83
2022-08-03T01:35:05.953Z,16.83
2022-08-03T01:35:58.794Z,16.82
2022-08-03T01:36:58.772Z,16.82
2022-08-03T01:38:05.934Z,16.79
2022-08-03T01:39:07.239Z,16.78
2022-08-03T01:39:58.741Z,16.78
2022-08-03T01:40:58.765Z,16.78
2022-08-03T01:41:58.742Z,16.76
2022-08-03T01:42:58.721Z,16.75
2022-08-03T01:44:29.159Z,16.73
2022-08-03T01:45:00.004Z,16.75
2022-08-03T01:45:58.629Z,16.71
2022-08-03T01:46:58.632Z,16.70
2022-08-03T01:47:58.611Z,16.66
2022-08-03T01:48:58.718Z,16.64
2022-08-03T01:49:58.599Z,16.61
2022-08-03T01:50:59.901Z,16.63
2022-08-03T01:52:04.912Z,16.60
2022-08-03T01:52:59.551Z,16.60
2022-08-03T01:53:58.539Z,16.60
2022-08-03T01:54:58.559Z,16.60
2022-08-03T01:55:58.506Z,16.56
2022-08-03T01:56:58.923Z,16.53
2022-08-03T01:58:04.865Z,16.50
2022-08-03T01:59:01.130Z,16.50
2022-08-03T01:59:58.456Z,16.50
2022-08-03T02:00:58.893Z,16.50
2022-08-03T02:02:31.959Z,16.52
2022-08-03T02:02:59.420Z,16.52
2022-08-03T02:04:00.944Z,16.52
2022-08-03T02:04:58.390Z,16.52
2022-08-03T02:06:18.151Z,16.49
2022-08-03T02:07:03.118Z,16.52
2022-08-03T02:07:58.349Z,16.50
2022-08-03T02:08:58.339Z,16.49
2022-08-03T02:09:58.330Z,16.50
2022-08-03T02:10:58.700Z,16.49
2022-08-03T02:11:58.287Z,16.48
2022-08-03T02:12:58.277Z,16.48
2022-08-03T02:13:58.256Z,16.50
2022-08-03T02:15:00.024Z,16.52
2022-08-03T02:15:58.260Z,16.50
2022-08-03T02:16:58.602Z,16.50
2022-08-03T02:17:58.223Z,16.48
2022-08-03T02:18:58.204Z,16.46
2022-08-03T02:19:58.245Z,16.45
2022-08-03T02:20:58.625Z,16.43
2022-08-03T02:22:10.643Z,16.42
2022-08-03T02:22:59.167Z,16.41
2022-08-03T02:23:58.154Z,16.39
2022-08-03T02:24:58.514Z,16.38
2022-08-03T02:25:59.966Z,16.38
2022-08-03T02:26:58.577Z,16.35
2022-08-03T02:27:58.094Z,16.35
2022-08-03T02:28:58.075Z,16.34
2022-08-03T02:29:58.063Z,16.31
2022-08-03T02:30:58.051Z,16.30
2022-08-03T02:31:58.381Z,16.28
2022-08-03T02:32:58.045Z,16.28
2022-08-03T02:33:58.022Z,16.28
2022-08-03T02:34:57.997Z,16.28
2022-08-03T02:35:58.002Z,16.30
2022-08-03T02:36:57.962Z,16.25
2022-08-03T02:37:58.372Z,16.28
2022-08-03T02:38:57.954Z,16.28
2022-08-03T02:39:57.915Z,16.27
2022-08-03T02:40:57.960Z,16.28
2022-08-03T02:41:57.972Z,16.30
2022-08-03T02:42:58.298Z,16.31
2022-08-03T02:43:57.861Z,16.33
2022-08-03T02:44:58.861Z,16.33
2022-08-03T02:45:57.839Z,16.33
2022-08-03T02:46:57.865Z,16.34
2022-08-03T02:47:57.811Z,16.34
2022-08-03T02:48:58.206Z,16.38
2022-08-03T02:49:57.841Z,16.38
2022-08-03T02:50:57.769Z,16.35
2022-08-03T02:51:57.781Z,16.35
2022-08-03T02:52:57.757Z,16.33
2022-08-03T02:53:57.723Z,16.31
2022-08-03T02:54:58.075Z,16.28
2022-08-03T02:55:57.701Z,16.27
2022-08-03T02:56:57.669Z,16.27
2022-08-03T02:57:57.719Z,16.27
2022-08-03T02:58:57.663Z,16.25
2022-08-03T02:59:58.109Z,16.21
2022-08-03T03:00:57.721Z,16.20
2022-08-03T03:01:57.627Z,16.20
2022-08-03T03:02:57.622Z,16.15
2022-08-03T03:03:57.605Z,16.14
2022-08-03T03:05:51.765Z,16.11
2022-08-03T03:05:58.588Z,16.11
2022-08-03T03:06:57.558Z,16.09
2022-08-03T03:07:57.575Z,16.09
2022-08-03T03:08:59.761Z,16.07
2022-08-03T03:09:57.498Z,16.07
2022-08-03T03:10:57.968Z,16.07
2022-08-03T03:11:57.487Z,16.07
2022-08-03T03:12:57.487Z,16.05
2022-08-03T03:13:57.448Z,16.04
2022-08-03T03:14:59.480Z,16.02
2022-08-03T03:15:57.418Z,16.02
2022-08-03T03:16:57.688Z,15.97
2022-08-03T03:17:57.407Z,15.94
2022-08-03T03:18:57.432Z,15.97
2022-08-03T03:20:04.926Z,15.93
2022-08-03T03:21:05.509Z,15.90
2022-08-03T03:22:04.473Z,15.92
2022-08-03T03:23:04.507Z,15.93
2022-08-03T03:24:04.533Z,15.94
2022-08-03T03:25:04.415Z,15.97
2022-08-03T03:26:04.860Z,16.01
2022-08-03T03:27:04.418Z,16.01
2022-08-03T03:28:06.224Z,16.00
2022-08-03T03:29:04.396Z,16.00
2022-08-03T03:29:57.227Z,15.97
2022-08-03T03:30:57.233Z,15.97
2022-08-03T03:32:04.887Z,15.96
2022-08-03T03:32:57.224Z,15.94
2022-08-03T03:33:57.189Z,15.93
2022-08-03T03:35:04.290Z,15.92
2022-08-03T03:36:04.265Z,15.89
2022-08-03T03:37:05.869Z,15.89
2022-08-03T03:38:04.273Z,15.87
2022-08-03T03:39:15.968Z,15.87
2022-08-03T03:41:08.474Z,15.87
2022-08-03T03:42:08.835Z,15.86
2022-08-03T03:43:15.475Z,15.84
2022-08-03T03:44:17.411Z,15.83
2022-08-03T03:45:15.391Z,15.82
2022-08-03T03:46:15.412Z,15.83
2022-08-03T03:47:08.412Z,15.83
2022-08-03T03:48:08.779Z,15.83
2022-08-03T03:49:08.262Z,15.82
2022-08-03T03:50:08.274Z,15.78
2022-08-03T03:51:08.197Z,15.80
2022-08-03T03:52:08.199Z,15.76
2022-08-03T03:53:09.274Z,15.76
2022-08-03T03:54:08.809Z,15.75
2022-08-03T03:55:08.159Z,15.75
2022-08-03T03:56:08.159Z,15.75
2022-08-03T03:57:08.157Z,15.74
2022-08-03T03:58:08.136Z,15.72
2022-08-03T03:59:08.097Z,15.72
2022-08-03T04:00:09.166Z,15.72
2022-08-03T04:01:08.136Z,15.72
2022-08-03T04:02:08.067Z,15.76
2022-08-03T04:03:08.057Z,15.75
2022-08-03T04:04:08.065Z,15.76
2022-08-03T04:05:08.401Z,15.80
2022-08-03T04:06:08.095Z,15.82
2022-08-03T04:07:08.045Z,15.83
2022-08-03T04:08:07.978Z,15.86
2022-08-03T04:09:08.009Z,15.87
2022-08-03T04:10:14.104Z,15.90
2022-08-03T04:11:09.376Z,15.90
2022-08-03T04:12:07.916Z,15.92
2022-08-03T04:13:07.917Z,15.93
2022-08-03T04:14:07.896Z,15.92
2022-08-03T04:15:08.196Z,15.93
2022-08-03T04:16:07.882Z,15.94
2022-08-03T04:17:07.875Z,15.96
2022-08-03T04:18:07.865Z,15.93
2022-08-03T04:19:07.843Z,15.96
2022-08-03T04:20:07.854Z,15.94
2022-08-03T04:21:08.241Z,15.94
2022-08-03T04:22:07.793Z,15.94
2022-08-03T04:23:12.800Z,15.92
2022-08-03T04:24:08.783Z,15.92
2022-08-03T04:25:07.753Z,15.92
2022-08-03T04:26:07.754Z,15.92
2022-08-03T04:27:08.065Z,15.93
2022-08-03T04:28:30.652Z,15.93
2022-08-03T04:29:08.702Z,15.94
2022-08-03T04:30:07.717Z,15.94
2022-08-03T04:31:07.964Z,16.00
2022-08-03T04:32:07.694Z,16.02
2022-08-03T04:33:08.075Z,16.04
2022-08-03T04:34:07.634Z,16.07
2022-08-03T04:35:07.609Z,16.09
2022-08-03T04:36:07.632Z,16.11
2022-08-03T04:37:07.663Z,16.14
2022-08-03T04:38:07.710Z,16.15
2022-08-03T04:39:07.649Z,16.20
2022-08-03T04:40:07.560Z,16.21
2022-08-03T04:41:07.569Z,16.24
2022-08-03T04:42:17.150Z,16.24
2022-08-03T04:43:08.503Z,16.25
2022-08-03T04:44:09.190Z,16.27
2022-08-03T04:45:07.824Z,16.31
2022-08-03T04:46:07.482Z,16.34
2022-08-03T04:47:07.474Z,16.35
2022-08-03T04:48:07.461Z,16.38
2022-08-03T04:49:07.510Z,16.35
2022-08-03T04:50:12.169Z,16.39
2022-08-03T04:51:08.726Z,16.41
2022-08-03T04:52:07.404Z,16.41
2022-08-03T04:53:07.404Z,16.42
2022-08-03T04:54:07.369Z,16.45
2022-08-03T04:55:07.514Z,16.50
2022-08-03T04:56:07.395Z,16.53
2022-08-03T04:57:07.747Z,16.58
2022-08-03T04:58:07.319Z,16.61
2022-08-03T04:59:07.328Z,16.66
2022-08-03T05:00:07.309Z,16.66
2022-08-03T05:01:07.380Z,16.68
2022-08-03T05:02:07.406Z,16.70
2022-08-03T05:03:20.363Z,16.73
2022-08-03T05:04:08.251Z,16.78
2022-08-03T05:05:07.265Z,16.78
2022-08-03T05:06:11.142Z,16.81
2022-08-03T05:07:11.749Z,16.81
2022-08-03T05:08:11.203Z,16.82
2022-08-03T05:09:07.164Z,16.86
2022-08-03T05:10:14.701Z,16.88
2022-08-03T05:11:08.177Z,16.93
2022-08-03T05:12:07.136Z,16.93
2022-08-03T05:13:07.450Z,16.96
2022-08-03T05:14:07.126Z,16.98
2022-08-03T05:15:07.084Z,17.00
2022-08-03T05:16:07.076Z,17.04
2022-08-03T05:17:07.523Z,17.06
2022-08-03T05:18:13.677Z,17.11
2022-08-03T05:19:08.055Z,17.11
2022-08-03T05:20:07.064Z,17.15
2022-08-03T05:21:07.034Z,17.16
2022-08-03T05:22:07.456Z,17.22
2022-08-03T05:23:07.036Z,17.23
2022-08-03T05:24:06.991Z,17.26
2022-08-03T05:25:06.996Z,17.31
2022-08-03T05:26:06.962Z,17.34
2022-08-03T05:27:07.267Z,17.38
2022-08-03T05:28:06.967Z,17.44
2022-08-03T05:29:06.933Z,17.48
2022-08-03T05:30:31.202Z,17.51
2022-08-03T05:31:07.884Z,17.54
2022-08-03T05:32:08.417Z,17.59
2022-08-03T05:33:07.125Z,17.64
2022-08-03T05:34:06.894Z,17.64
2022-08-03T05:36:02.141Z,17.68
2022-08-03T05:36:07.843Z,17.72
2022-08-03T05:37:06.804Z,17.74
2022-08-03T05:38:06.916Z,17.79
2022-08-03T05:39:07.015Z,17.81
2022-08-03T05:40:06.794Z,17.87
2022-08-03T05:41:23.526Z,17.92
2022-08-03T05:42:07.755Z,17.93
2022-08-03T05:43:06.729Z,17.96
2022-08-03T05:44:06.753Z,18.00
2022-08-03T05:45:06.744Z,18.02
2022-08-03T05:46:12.352Z,18.05
2022-08-03T05:47:07.692Z,18.11
2022-08-03T05:48:06.722Z,18.12
2022-08-03T05:49:06.705Z,18.20
2022-08-03T05:50:06.688Z,18.26
2022-08-03T05:51:06.882Z,18.32
2022-08-03T05:52:11.702Z,18.35
2022-08-03T05:53:07.611Z,18.37
2022-08-03T05:54:06.632Z,18.45
2022-08-03T05:55:06.674Z,18.50
2022-08-03T05:56:14.277Z,18.52
2022-08-03T05:57:07.572Z,18.55
2022-08-03T05:58:06.544Z,18.60
2022-08-03T05:59:28.679Z,18.66
2022-08-03T06:00:07.602Z,18.67
2022-08-03T06:01:06.586Z,18.73
2022-08-03T06:02:06.509Z,18.76
2022-08-03T06:03:06.506Z,18.80
2022-08-03T06:04:06.482Z,18.84
2022-08-03T06:05:06.481Z,18.87
2022-08-03T06:06:06.671Z,18.92
2022-08-03T06:07:06.419Z,18.95
2022-08-03T06:08:06.419Z,19.02
2022-08-03T06:09:07.094Z,19.10
2022-08-03T06:10:34.084Z,19.44
2022-08-03T06:11:07.698Z,20.18
2022-08-03T06:12:06.398Z,21.10
2022-08-03T06:13:06.360Z,21.67
2022-08-03T06:14:06.356Z,21.90
2022-08-03T06:15:06.358Z,21.92
2022-08-03T06:16:07.755Z,21.68
2022-08-03T06:17:06.299Z,21.72
2022-08-03T06:18:06.289Z,22.37
2022-08-03T06:19:06.300Z,23.10
2022-08-03T06:20:06.291Z,23.76
2022-08-03T06:21:14.771Z,24.39
2022-08-03T06:22:07.229Z,25.00
2022-08-03T06:23:06.311Z,25.28
2022-08-03T06:24:06.317Z,25.54
2022-08-03T06:25:06.721Z,25.85
2022-08-03T06:26:06.198Z,26.21
2022-08-03T06:27:06.519Z,26.21
2022-08-03T06:28:07.635Z,26.44
2022-08-03T06:29:06.144Z,26.58
2022-08-03T06:30:06.198Z,26.91
2022-08-03T06:31:06.514Z,26.88
2022-08-03T06:32:06.126Z,27.18
2022-08-03T06:33:08.253Z,27.36
2022-08-03T06:34:34.303Z,27.57
2022-08-03T06:35:07.096Z,27.82
2022-08-03T06:36:06.091Z,28.00
2022-08-03T06:37:06.109Z,28.30
2022-08-03T06:38:06.038Z,28.55
2022-08-03T06:39:06.450Z,28.61
2022-08-03T06:40:06.030Z,28.62
2022-08-03T06:41:05.989Z,28.61
2022-08-03T06:42:05.990Z,28.83
2022-08-03T06:43:08.508Z,28.98
2022-08-03T06:44:06.989Z,29.04
2022-08-03T06:45:05.958Z,29.11
2022-08-03T06:46:05.930Z,29.37
2022-08-03T06:47:05.909Z,29.71
2022-08-03T06:48:05.922Z,29.73
2022-08-03T06:49:05.932Z,29.55
2022-08-03T06:50:16.313Z,29.33
2022-08-03T06:51:06.879Z,29.42
2022-08-03T06:52:07.061Z,29.39
2022-08-03T06:53:05.860Z,29.55
2022-08-03T06:54:13.985Z,29.80
2022-08-03T06:55:13.257Z,30.01
2022-08-03T06:56:13.881Z,29.79
2022-08-03T06:57:12.959Z,30.02
2022-08-03T06:58:14.082Z,30.17
2022-08-03T07:00:06.123Z,30.17
2022-08-03T07:00:13.042Z,30.37
2022-08-03T07:01:13.971Z,30.34
2022-08-03T07:02:12.869Z,30.45
2022-08-03T07:03:12.926Z,30.58
2022-08-03T07:04:05.726Z,30.65
2022-08-03T07:05:05.715Z,30.61
2022-08-03T07:06:06.025Z,30.24
2022-08-03T07:07:05.693Z,30.67
2022-08-03T07:08:05.737Z,30.58
2022-08-03T07:09:05.737Z,30.27
2022-08-03T07:10:05.646Z,30.24
2022-08-03T07:11:05.616Z,30.51
2022-08-03T07:12:05.918Z,30.75
2022-08-03T07:13:05.626Z,30.39
2022-08-03T07:14:05.614Z,30.53
2022-08-03T07:15:05.591Z,30.45
2022-08-03T07:16:06.353Z,30.57
2022-08-03T07:17:11.468Z,30.67
2022-08-03T07:18:06.566Z,30.64
2022-08-03T07:19:05.537Z,30.51
2022-08-03T07:20:05.566Z,30.35
2022-08-03T07:21:05.916Z,30.20
2022-08-03T07:22:05.562Z,30.15
2022-08-03T07:23:05.553Z,30.17
2022-08-03T07:24:05.498Z,30.37
2022-08-03T07:25:05.492Z,30.31
2022-08-03T07:26:05.458Z,30.83
2022-08-03T07:27:05.469Z,31.09
2022-08-03T07:28:05.416Z,30.83
2022-08-03T07:29:14.909Z,30.62
2022-08-03T07:30:06.397Z,30.35
2022-08-03T07:31:05.396Z,30.02
2022-08-03T07:32:05.919Z,29.39
2022-08-03T07:33:05.377Z,28.88
2022-08-03T07:34:05.341Z,28.90
2022-08-03T07:35:08.838Z,29.19
2022-08-03T07:36:06.379Z,29.27
2022-08-03T07:37:05.471Z,29.09
2022-08-03T07:38:05.987Z,29.15
2022-08-03T07:39:16.492Z,29.48
2022-08-03T07:40:06.281Z,29.97
2022-08-03T07:41:05.308Z,30.58
2022-08-03T07:42:05.259Z,30.11
2022-08-03T07:43:05.309Z,30.04
2022-08-03T07:44:05.898Z,29.94
2022-08-03T07:45:05.235Z,30.08
2022-08-03T07:46:05.203Z,30.27
2022-08-03T07:47:05.218Z,30.51
2022-08-03T07:48:08.828Z,30.97
2022-08-03T07:49:06.504Z,31.47
2022-08-03T07:50:05.189Z,31.78
2022-08-03T07:51:05.158Z,31.91
2022-08-03T07:52:05.147Z,32.04
2022-08-03T07:53:05.177Z,32.19
2022-08-03T07:54:05.330Z,31.99
2022-08-03T07:55:05.138Z,32.01
2022-08-03T07:56:05.762Z,32.04
2022-08-03T07:57:06.098Z,32.32
2022-08-03T07:58:05.084Z,32.56
2022-08-03T07:59:05.081Z,32.38
2022-08-03T08:00:05.076Z,32.07
2022-08-03T08:01:05.444Z,32.13
2022-08-03T08:02:05.027Z,32.25
2022-08-03T08:03:05.011Z,32.35
2022-08-03T08:04:05.049Z,32.67
2022-08-03T08:05:05.710Z,32.96
2022-08-03T08:06:04.969Z,32.57
2022-08-03T08:07:05.370Z,31.99
2022-08-03T08:08:04.959Z,31.78
2022-08-03T08:09:04.975Z,31.99
2022-08-03T08:10:04.938Z,32.00
2022-08-03T08:11:04.958Z,32.11
2022-08-03T08:12:04.906Z,32.00
2022-08-03T08:13:06.338Z,32.32
2022-08-03T08:14:04.885Z,32.82
2022-08-03T08:15:04.878Z,33.03
2022-08-03T08:16:04.858Z,32.88
2022-08-03T08:17:07.379Z,32.72
2022-08-03T08:18:04.848Z,32.77
2022-08-03T08:19:05.259Z,33.18
2022-08-03T08:20:04.805Z,33.42
2022-08-03T08:21:04.830Z,33.44
2022-08-03T08:22:05.041Z,33.49
2022-08-03T08:23:10.246Z,33.49
2022-08-03T08:24:10.733Z,33.37
2022-08-03T08:25:05.801Z,33.15
2022-08-03T08:26:04.748Z,32.75
2022-08-03T08:27:04.739Z,32.81
2022-08-03T08:28:30.709Z,32.92
2022-08-03T08:29:05.727Z,33.34
2022-08-03T08:30:11.531Z,33.57
2022-08-03T08:31:05.701Z,33.54
2022-08-03T08:32:04.688Z,33.45
2022-08-03T08:33:04.678Z,33.12
2022-08-03T08:34:04.931Z,32.96
2022-08-03T08:35:04.705Z,32.63
2022-08-03T08:36:04.948Z,32.38
2022-08-03T08:37:04.640Z,32.23
2022-08-03T08:38:05.702Z,32.41
2022-08-03T08:39:04.587Z,32.65
2022-08-03T08:40:04.590Z,32.63
2022-08-03T08:41:04.677Z,32.69
2022-08-03T08:42:05.478Z,32.74
2022-08-03T08:43:04.576Z,32.74
2022-08-03T08:44:04.589Z,32.66
2022-08-03T08:45:04.553Z,32.25
2022-08-03T08:46:04.535Z,31.73
2022-08-03T08:47:04.530Z,31.12
2022-08-03T08:48:08.249Z,30.65
2022-08-03T08:49:05.200Z,30.20
2022-08-03T08:50:10.229Z,29.67
2022-08-03T08:51:05.489Z,29.24
2022-08-03T08:52:04.455Z,29.15
2022-08-03T08:53:06.097Z,29.08
2022-08-03T08:54:04.467Z,29.06
2022-08-03T08:55:04.536Z,29.02
2022-08-03T08:56:04.426Z,29.04
2022-08-03T08:57:12.476Z,28.89
2022-08-03T08:58:05.377Z,28.64
2022-08-03T08:59:04.407Z,28.51
2022-08-03T09:00:04.409Z,28.19
2022-08-03T09:01:04.425Z,28.11
2022-08-03T09:02:04.387Z,28.17
2022-08-03T09:03:04.659Z,28.15
2022-08-03T09:04:04.335Z,28.24
2022-08-03T09:05:07.388Z,28.27
2022-08-03T09:06:04.297Z,28.19
2022-08-03T09:07:19.652Z,28.24
2022-08-03T09:08:05.665Z,28.29
2022-08-03T09:09:04.248Z,28.34
2022-08-03T09:10:12.495Z,28.36
2022-08-03T09:11:05.223Z,28.43
2022-08-03T09:12:21.105Z,28.49
2022-08-03T09:13:05.206Z,28.56
2022-08-03T09:14:04.539Z,28.66
2022-08-03T09:15:16.625Z,28.67
2022-08-03T09:16:05.412Z,28.78
2022-08-03T09:17:04.998Z,28.86
2022-08-03T09:18:04.627Z,28.88
2022-08-03T09:19:04.138Z,28.70
2022-08-03T09:20:04.177Z,28.68
2022-08-03T09:21:24.297Z,28.68
2022-08-03T09:22:09.047Z,28.58
2022-08-03T09:23:19.018Z,28.52
2022-08-03T09:24:07.253Z,28.56
2022-08-03T09:25:23.989Z,28.56
2022-08-03T09:26:05.087Z,28.59
2022-08-03T09:27:04.018Z,28.68
2022-08-03T09:28:04.119Z,28.77
2022-08-03T09:29:09.337Z,28.81
2022-08-03T09:30:05.698Z,28.89
2022-08-03T09:31:05.054Z,28.95
2022-08-03T09:32:03.979Z,28.93
2022-08-03T09:33:04.007Z,29.04
2022-08-03T09:34:03.919Z,29.02
2022-08-03T09:35:03.931Z,28.88
2022-08-03T09:36:04.339Z,29.00
2022-08-03T09:37:03.920Z,29.09
2022-08-03T09:38:13.449Z,29.11
2022-08-03T09:39:04.886Z,29.18
2022-08-03T09:40:03.929Z,29.28
2022-08-03T09:41:04.218Z,29.34
2022-08-03T09:42:07.416Z,29.39
2022-08-03T09:43:03.820Z,29.41
2022-08-03T09:44:03.798Z,29.41
2022-08-03T09:45:04.130Z,29.43
2022-08-03T09:46:03.798Z,29.39
2022-08-03T09:47:03.841Z,29.42
2022-08-03T09:48:03.777Z,29.51
2022-08-03T09:49:03.816Z,29.48
2022-08-03T09:50:05.184Z,29.42
2022-08-03T09:51:12.970Z,29.49
2022-08-03T09:52:33.115Z,29.48
2022-08-03T09:53:04.717Z,29.46
2022-08-03T09:54:03.690Z,29.43
2022-08-03T09:55:03.687Z,29.43
2022-08-03T09:56:33.720Z,29.55
2022-08-03T09:57:04.637Z,29.64
2022-08-03T09:58:03.628Z,29.71
2022-08-03T09:59:03.717Z,29.76
2022-08-03T10:00:07.989Z,29.82
2022-08-03T10:01:04.226Z,29.89
2022-08-03T10:02:03.589Z,29.97
2022-08-03T10:03:03.607Z,30.07
2022-08-03T10:04:04.922Z,30.07
2022-08-03T10:05:03.600Z,30.08
2022-08-03T10:06:03.547Z,30.07
2022-08-03T10:07:03.836Z,30.02
2022-08-03T10:08:03.508Z,30.04
2022-08-03T10:09:03.551Z,30.13
2022-08-03T10:10:30.445Z,30.23
2022-08-03T10:11:04.478Z,30.34
2022-08-03T10:12:03.868Z,30.46
2022-08-03T10:13:03.461Z,30.57
2022-08-03T10:14:03.448Z,30.67
2022-08-03T10:15:03.418Z,30.79
2022-08-03T10:16:23.785Z,30.89
2022-08-03T10:17:04.830Z,30.99
2022-08-03T10:18:04.289Z,31.04
2022-08-03T10:19:03.538Z,31.07
2022-08-03T10:20:03.376Z,31.04
2022-08-03T10:21:03.351Z,30.94
2022-08-03T10:22:03.343Z,30.91
2022-08-03T10:23:03.736Z,30.86
2022-08-03T10:24:03.470Z,30.86
2022-08-03T10:25:03.305Z,30.89
2022-08-03T10:26:03.269Z,30.99
2022-08-03T10:27:03.618Z,31.16
2022-08-03T10:28:03.267Z,31.23
2022-08-03T10:29:03.264Z,31.32
2022-08-03T10:30:03.826Z,31.31
2022-08-03T10:31:03.205Z,31.34
2022-08-03T10:32:03.188Z,31.39
2022-08-03T10:33:03.623Z,31.46
2022-08-03T10:34:04.239Z,31.51
2022-08-03T10:35:12.413Z,31.47
2022-08-03T10:36:04.159Z,31.54
2022-08-03T10:37:03.146Z,31.65
2022-08-03T10:38:03.133Z,31.70
2022-08-03T10:39:03.471Z,31.72
2022-08-03T10:40:04.094Z,31.75
2022-08-03T10:41:03.099Z,31.69
2022-08-03T10:42:03.087Z,31.70
2022-08-03T10:43:03.087Z,31.78
2022-08-03T10:44:03.069Z,31.66
2022-08-03T10:45:03.368Z,31.53
2022-08-03T10:46:03.029Z,31.46
2022-08-03T10:47:03.038Z,31.51
2022-08-03T10:48:03.006Z,31.56
2022-08-03T10:49:03.400Z,31.57
2022-08-03T10:50:02.967Z,31.44
2022-08-03T10:51:02.956Z,31.36
2022-08-03T10:52:10.452Z,31.34
2022-08-03T10:53:04.101Z,31.44
2022-08-03T10:54:03.307Z,31.50
2022-08-03T10:55:03.255Z,31.57
2022-08-03T10:56:03.266Z,31.54
2022-08-03T10:57:13.396Z,31.58
2022-08-03T10:58:07.949Z,31.66
2022-08-03T10:59:04.209Z,31.75
2022-08-03T11:00:02.862Z,31.73
2022-08-03T11:01:03.136Z,31.76
2022-08-03T11:02:02.835Z,31.73
2022-08-03T11:03:02.829Z,31.80
2022-08-03T11:04:06.137Z,31.80
2022-08-03T11:05:04.099Z,31.76
2022-08-03T11:06:02.830Z,31.68
2022-08-03T11:07:02.792Z,31.65
2022-08-03T11:08:02.759Z,31.68
2022-08-03T11:09:03.089Z,31.76
2022-08-03T11:10:04.697Z,31.88
2022-08-03T11:11:03.730Z,31.72
2022-08-03T11:12:02.719Z,31.66
2022-08-03T11:13:02.708Z,31.54
2022-08-03T11:14:02.689Z,31.46
2022-08-03T11:15:02.739Z,31.47
2022-08-03T11:16:05.862Z,31.53
2022-08-03T11:17:02.648Z,31.41
2022-08-03T11:18:02.657Z,31.39
2022-08-03T11:19:02.807Z,31.39
2022-08-03T11:20:02.702Z,31.46
2022-08-03T11:21:02.930Z,31.62
2022-08-03T11:22:02.620Z,31.80
2022-08-03T11:23:02.588Z,31.99
2022-08-03T11:24:06.324Z,31.92
2022-08-03T11:25:02.569Z,31.89
2022-08-03T11:26:02.578Z,31.99
2022-08-03T11:27:05.855Z,31.95
2022-08-03T11:28:02.520Z,31.99
2022-08-03T11:29:02.542Z,32.07
2022-08-03T11:30:02.505Z,32.01
2022-08-03T11:31:02.491Z,31.89
2022-08-03T11:32:02.455Z,31.89
2022-08-03T11:33:02.762Z,32.03
2022-08-03T11:34:02.449Z,32.07
2022-08-03T11:35:02.451Z,31.96
2022-08-03T11:36:02.442Z,31.93
2022-08-03T11:37:02.410Z,31.93
2022-08-03T11:38:04.965Z,31.96
2022-08-03T11:39:02.375Z,32.01
2022-08-03T11:40:02.843Z,32.15
2022-08-03T11:41:03.299Z,32.33
2022-08-03T11:42:02.340Z,32.50
2022-08-03T11:43:02.594Z,32.65
2022-08-03T11:44:02.316Z,32.67
2022-08-03T11:45:02.321Z,32.74
2022-08-03T11:46:02.283Z,32.75
2022-08-03T11:47:02.279Z,32.78
2022-08-03T11:48:02.469Z,32.88
2022-08-03T11:49:05.339Z,32.93
2022-08-03T11:50:03.310Z,32.93
2022-08-03T11:51:02.228Z,32.77
2022-08-03T11:52:02.238Z,32.62
2022-08-03T11:53:02.883Z,32.45
2022-08-03T11:54:02.397Z,32.45
2022-08-03T11:55:02.185Z,32.47
2022-08-03T11:56:02.177Z,32.55
2022-08-03T11:57:02.194Z,32.63
2022-08-03T11:59:03.415Z,32.78
2022-08-03T11:59:18.700Z,32.88
2022-08-03T12:00:03.138Z,33.01
2022-08-03T12:01:02.108Z,33.01
2022-08-03T12:02:02.109Z,32.94
2022-08-03T12:03:02.621Z,32.88
2022-08-03T12:04:02.528Z,32.89
2022-08-03T12:05:02.070Z,32.84
2022-08-03T12:06:02.119Z,32.75
2022-08-03T12:07:02.049Z,32.77
2022-08-03T12:08:04.071Z,32.82
2022-08-03T12:09:02.327Z,32.92
2022-08-03T12:10:02.089Z,33.03
2022-08-03T12:11:02.000Z,33.04
2022-08-03T12:12:02.009Z,33.00
2022-08-03T12:13:02.087Z,32.96
2022-08-03T12:14:44.959Z,33.00
2022-08-03T12:15:02.968Z,33.00
2022-08-03T12:16:09.090Z,33.06
2022-08-03T12:17:09.089Z,33.06
2022-08-03T12:18:11.013Z,32.79
2022-08-03T12:19:09.437Z,32.75
2022-08-03T12:20:09.001Z,32.75
2022-08-03T12:21:10.019Z,32.81
2022-08-03T12:22:11.032Z,32.93
2022-08-03T12:23:10.011Z,32.99
2022-08-03T12:24:09.261Z,33.11
2022-08-03T12:25:08.927Z,33.04
2022-08-03T12:26:09.938Z,33.00
2022-08-03T12:27:01.799Z,32.88
2022-08-03T12:28:01.810Z,32.78
2022-08-03T12:29:02.109Z,32.78
2022-08-03T12:30:01.884Z,32.84
2022-08-03T12:31:01.752Z,32.92
2022-08-03T12:32:01.720Z,32.99
2022-08-03T12:33:01.701Z,32.99
2022-08-03T12:34:01.698Z,33.12
2022-08-03T12:35:02.330Z,33.18
2022-08-03T12:36:01.709Z,33.18
2022-08-03T12:37:01.802Z,33.28
2022-08-03T12:38:01.639Z,33.26
2022-08-03T12:39:02.015Z,33.21
2022-08-03T12:40:06.454Z,33.19
2022-08-03T12:41:02.621Z,33.28
2022-08-03T12:42:01.597Z,33.41
2022-08-03T12:43:01.579Z,33.37
2022-08-03T12:44:01.589Z,33.44
2022-08-03T12:45:01.960Z,33.47
2022-08-03T12:46:01.592Z,33.54
2022-08-03T12:47:01.561Z,33.59
2022-08-03T12:48:01.588Z,33.60
2022-08-03T12:49:01.599Z,33.41
2022-08-03T12:50:01.509Z,33.31
2022-08-03T12:51:01.819Z,33.28
2022-08-03T12:52:06.888Z,33.16
2022-08-03T12:53:02.450Z,33.19
2022-08-03T12:54:01.476Z,33.38
2022-08-03T12:55:01.460Z,33.53